sensor_id;sensor_type;location;lat;lon;timestamp;P1;durP1;ratioP1;P2;durP2;ratioP2
32186;SDS011;18686;53.084;8.872;2023-04-01T00:00:35;74.28;;;25.70;;
32186;SDS011;18686;53.084;8.872;2023-04-01T00:03:06;64.00;;;26.10;;
32186;SDS011;18686;53.084;8.872;2023-04-01T00:05:37;72.47;;;26.10;;
32186;SDS011;18686;53.084;8.872;2023-04-01T00:08:06;70.10;;;26.58;;
32186;SDS011;18686;53.084;8.872;2023-04-01T00:10:37;76.45;;;28.25;;
32186;SDS011;18686;53.084;8.872;2023-04-01T00:13:05;84.90;;;27.58;;
32186;SDS011;18686;53.084;8.872;2023-04-01T00:15:33;71.85;;;27.92;;
32186;SDS011;18686;53.084;8.872;2023-04-01T00:18:02;66.60;;;27.10;;
32186;SDS011;18686;53.084;8.872;2023-04-01T00:20:31;81.72;;;28.58;;
32186;SDS011;18686;53.084;8.872;2023-04-01T00:22:59;74.85;;;28.17;;
32186;SDS011;18686;53.084;8.872;2023-04-01T00:25:29;82.70;;;27.38;;
32186;SDS011;18686;53.084;8.872;2023-04-01T00:27:57;80.47;;;28.50;;
32186;SDS011;18686;53.084;8.872;2023-04-01T00:30:25;89.90;;;28.88;;
32186;SDS011;18686;53.084;8.872;2023-04-01T00:32:53;80.90;;;29.10;;
32186;SDS011;18686;53.084;8.872;2023-04-01T00:35:22;88.65;;;29.02;;
32186;SDS011;18686;53.084;8.872;2023-04-01T00:37:50;96.20;;;29.10;;
32186;SDS011;18686;53.084;8.872;2023-04-01T00:40:26;78.68;;;28.48;;
32186;SDS011;18686;53.084;8.872;2023-04-01T00:42:57;86.00;;;27.83;;
32186;SDS011;18686;53.084;8.872;2023-04-01T00:45:35;82.22;;;28.98;;
32186;SDS011;18686;53.084;8.872;2023-04-01T00:48:06;99.95;;;30.65;;
32186;SDS011;18686;53.084;8.872;2023-04-01T00:50:38;88.72;;;30.35;;
32186;SDS011;18686;53.084;8.872;2023-04-01T00:53:09;91.07;;;29.70;;
32186;SDS011;18686;53.084;8.872;2023-04-01T00:55:41;91.20;;;30.65;;
32186;SDS011;18686;53.084;8.872;2023-04-01T00:58:13;86.63;;;29.35;;
32186;SDS011;18686;53.084;8.872;2023-04-01T01:00:44;75.20;;;27.63;;
32186;SDS011;18686;53.084;8.872;2023-04-01T01:03:16;97.05;;;31.73;;
32186;SDS011;18686;53.084;8.872;2023-04-01T01:05:49;101.40;;;32.05;;
32186;SDS011;18686;53.084;8.872;2023-04-01T01:08:31;87.57;;;31.10;;
32186;SDS011;18686;53.084;8.872;2023-04-01T01:11:10;97.25;;;31.35;;
32186;SDS011;18686;53.084;8.872;2023-04-01T01:13:40;93.32;;;29.60;;
32186;SDS011;18686;53.084;8.872;2023-04-01T01:16:14;90.93;;;30.70;;
32186;SDS011;18686;53.084;8.872;2023-04-01T01:18:48;83.20;;;28.98;;
32186;SDS011;18686;53.084;8.872;2023-04-01T01:21:30;89.00;;;29.40;;
32186;SDS011;18686;53.084;8.872;2023-04-01T01:24:22;99.68;;;29.92;;
32186;SDS011;18686;53.084;8.872;2023-04-01T01:27:04;86.10;;;29.02;;
32186;SDS011;18686;53.084;8.872;2023-04-01T01:29:41;96.57;;;30.67;;
32186;SDS011;18686;53.084;8.872;2023-04-01T01:32:38;94.63;;;30.35;;
32186;SDS011;18686;53.084;8.872;2023-04-01T01:35:30;76.85;;;28.15;;
32186;SDS011;18686;53.084;8.872;2023-04-01T01:38:05;81.35;;;28.65;;
32186;SDS011;18686;53.084;8.872;2023-04-01T01:40:39;91.65;;;30.65;;
32186;SDS011;18686;53.084;8.872;2023-04-01T01:43:11;98.80;;;30.42;;
32186;SDS011;18686;53.084;8.872;2023-04-01T01:45:46;91.30;;;30.25;;
32186;SDS011;18686;53.084;8.872;2023-04-01T01:48:16;86.13;;;29.85;;
32186;SDS011;18686;53.084;8.872;2023-04-01T01:50:47;96.53;;;30.88;;
32186;SDS011;18686;53.084;8.872;2023-04-01T01:53:17;98.07;;;31.80;;
32186;SDS011;18686;53.084;8.872;2023-04-01T01:55:46;98.13;;;31.00;;
32186;SDS011;18686;53.084;8.872;2023-04-01T01:58:16;95.78;;;32.92;;
32186;SDS011;18686;53.084;8.872;2023-04-01T02:00:48;106.88;;;34.28;;
32186;SDS011;18686;53.084;8.872;2023-04-01T02:03:20;103.63;;;33.80;;
32186;SDS011;18686;53.084;8.872;2023-04-01T02:05:52;101.10;;;33.38;;
32186;SDS011;18686;53.084;8.872;2023-04-01T02:08:23;95.82;;;32.35;;
32186;SDS011;18686;53.084;8.872;2023-04-01T02:10:55;102.75;;;34.83;;
32186;SDS011;18686;53.084;8.872;2023-04-01T02:13:31;108.72;;;35.67;;
32186;SDS011;18686;53.084;8.872;2023-04-01T02:16:06;96.80;;;33.58;;
32186;SDS011;18686;53.084;8.872;2023-04-01T02:21:10;105.82;;;34.92;;
32186;SDS011;18686;53.084;8.872;2023-04-01T02:23:39;107.95;;;35.50;;
32186;SDS011;18686;53.084;8.872;2023-04-01T02:26:08;131.05;;;37.47;;
32186;SDS011;18686;53.084;8.872;2023-04-01T02:28:38;123.32;;;36.10;;
32186;SDS011;18686;53.084;8.872;2023-04-01T02:31:08;120.38;;;36.83;;
32186;SDS011;18686;53.084;8.872;2023-04-01T02:33:38;107.75;;;35.10;;
32186;SDS011;18686;53.084;8.872;2023-04-01T02:36:11;123.43;;;36.97;;
32186;SDS011;18686;53.084;8.872;2023-04-01T02:38:41;118.95;;;36.88;;
32186;SDS011;18686;53.084;8.872;2023-04-01T02:41:11;112.47;;;36.40;;
32186;SDS011;18686;53.084;8.872;2023-04-01T02:43:40;132.25;;;36.70;;
32186;SDS011;18686;53.084;8.872;2023-04-01T02:46:08;99.72;;;33.63;;
32186;SDS011;18686;53.084;8.872;2023-04-01T02:48:37;116.13;;;35.80;;
32186;SDS011;18686;53.084;8.872;2023-04-01T02:51:05;94.57;;;33.80;;
32186;SDS011;18686;53.084;8.872;2023-04-01T02:53:35;105.55;;;35.25;;
32186;SDS011;18686;53.084;8.872;2023-04-01T02:56:03;110.55;;;33.90;;
32186;SDS011;18686;53.084;8.872;2023-04-01T02:58:31;103.70;;;32.65;;
32186;SDS011;18686;53.084;8.872;2023-04-01T03:01:00;95.65;;;33.30;;
32186;SDS011;18686;53.084;8.872;2023-04-01T03:03:28;122.53;;;35.72;;
32186;SDS011;18686;53.084;8.872;2023-04-01T03:05:56;110.50;;;34.08;;
32186;SDS011;18686;53.084;8.872;2023-04-01T03:08:26;122.00;;;35.03;;
32186;SDS011;18686;53.084;8.872;2023-04-01T03:10:56;117.90;;;33.50;;
32186;SDS011;18686;53.084;8.872;2023-04-01T03:13:26;125.35;;;33.88;;
32186;SDS011;18686;53.084;8.872;2023-04-01T03:15:54;118.25;;;31.58;;
32186;SDS011;18686;53.084;8.872;2023-04-01T03:18:22;115.53;;;31.75;;
32186;SDS011;18686;53.084;8.872;2023-04-01T03:20:51;116.50;;;32.83;;
32186;SDS011;18686;53.084;8.872;2023-04-01T03:23:19;86.50;;;28.52;;
32186;SDS011;18686;53.084;8.872;2023-04-01T03:25:47;110.55;;;31.70;;
32186;SDS011;18686;53.084;8.872;2023-04-01T03:28:17;132.93;;;31.88;;
32186;SDS011;18686;53.084;8.872;2023-04-01T03:30:45;98.13;;;29.55;;
32186;SDS011;18686;53.084;8.872;2023-04-01T03:33:14;111.03;;;29.75;;
32186;SDS011;18686;53.084;8.872;2023-04-01T03:35:42;116.55;;;30.60;;
32186;SDS011;18686;53.084;8.872;2023-04-01T03:38:10;87.20;;;28.25;;
32186;SDS011;18686;53.084;8.872;2023-04-01T03:40:42;101.90;;;27.77;;
32186;SDS011;18686;53.084;8.872;2023-04-01T03:43:11;110.57;;;29.60;;
32186;SDS011;18686;53.084;8.872;2023-04-01T03:45:44;101.25;;;27.75;;
32186;SDS011;18686;53.084;8.872;2023-04-01T03:48:13;87.10;;;27.52;;
32186;SDS011;18686;53.084;8.872;2023-04-01T03:50:42;101.30;;;27.65;;
32186;SDS011;18686;53.084;8.872;2023-04-01T03:53:11;103.53;;;29.63;;
32186;SDS011;18686;53.084;8.872;2023-04-01T03:55:42;123.70;;;30.73;;
32186;SDS011;18686;53.084;8.872;2023-04-01T03:58:10;103.00;;;27.92;;
32186;SDS011;18686;53.084;8.872;2023-04-01T04:00:38;96.63;;;29.63;;
32186;SDS011;18686;53.084;8.872;2023-04-01T04:03:09;98.53;;;28.20;;
32186;SDS011;18686;53.084;8.872;2023-04-01T04:05:37;106.38;;;28.33;;
32186;SDS011;18686;53.084;8.872;2023-04-01T04:08:14;112.35;;;30.02;;
32186;SDS011;18686;53.084;8.872;2023-04-01T04:10:43;94.75;;;26.90;;
32186;SDS011;18686;53.084;8.872;2023-04-01T04:13:12;90.22;;;25.42;;
32186;SDS011;18686;53.084;8.872;2023-04-01T04:15:48;89.15;;;25.95;;
32186;SDS011;18686;53.084;8.872;2023-04-01T04:18:18;87.28;;;26.05;;
32186;SDS011;18686;53.084;8.872;2023-04-01T04:20:46;105.78;;;28.45;;
32186;SDS011;18686;53.084;8.872;2023-04-01T04:23:18;104.47;;;28.38;;
32186;SDS011;18686;53.084;8.872;2023-04-01T04:25:53;111.47;;;28.45;;
32186;SDS011;18686;53.084;8.872;2023-04-01T04:28:22;93.55;;;27.30;;
32186;SDS011;18686;53.084;8.872;2023-04-01T04:30:52;100.20;;;26.58;;
32186;SDS011;18686;53.084;8.872;2023-04-01T04:33:22;105.00;;;26.92;;
32186;SDS011;18686;53.084;8.872;2023-04-01T04:35:51;92.70;;;26.20;;
32186;SDS011;18686;53.084;8.872;2023-04-01T04:38:22;110.78;;;27.17;;
32186;SDS011;18686;53.084;8.872;2023-04-01T04:40:52;92.28;;;26.60;;
32186;SDS011;18686;53.084;8.872;2023-04-01T04:43:21;113.47;;;27.83;;
32186;SDS011;18686;53.084;8.872;2023-04-01T04:45:50;96.60;;;26.80;;
32186;SDS011;18686;53.084;8.872;2023-04-01T04:48:18;97.40;;;27.38;;
32186;SDS011;18686;53.084;8.872;2023-04-01T04:50:49;89.20;;;25.23;;
32186;SDS011;18686;53.084;8.872;2023-04-01T04:55:51;103.72;;;28.30;;
32186;SDS011;18686;53.084;8.872;2023-04-01T04:58:33;109.50;;;27.52;;
32186;SDS011;18686;53.084;8.872;2023-04-01T05:01:05;121.20;;;28.98;;
32186;SDS011;18686;53.084;8.872;2023-04-01T05:03:34;113.28;;;28.40;;
32186;SDS011;18686;53.084;8.872;2023-04-01T05:06:05;89.05;;;25.48;;
32186;SDS011;18686;53.084;8.872;2023-04-01T05:08:34;111.05;;;28.98;;
32186;SDS011;18686;53.084;8.872;2023-04-01T05:11:06;107.15;;;27.45;;
32186;SDS011;18686;53.084;8.872;2023-04-01T05:13:41;95.85;;;26.00;;
32186;SDS011;18686;53.084;8.872;2023-04-01T05:16:11;82.05;;;25.17;;
32186;SDS011;18686;53.084;8.872;2023-04-01T05:18:40;108.38;;;27.55;;
32186;SDS011;18686;53.084;8.872;2023-04-01T05:21:11;81.40;;;24.67;;
32186;SDS011;18686;53.084;8.872;2023-04-01T05:23:41;96.15;;;26.77;;
32186;SDS011;18686;53.084;8.872;2023-04-01T05:26:11;98.53;;;27.60;;
32186;SDS011;18686;53.084;8.872;2023-04-01T05:28:41;97.95;;;26.15;;
32186;SDS011;18686;53.084;8.872;2023-04-01T05:31:10;88.22;;;24.88;;
32186;SDS011;18686;53.084;8.872;2023-04-01T05:33:41;83.28;;;25.85;;
32186;SDS011;18686;53.084;8.872;2023-04-01T05:36:12;83.93;;;25.38;;
32186;SDS011;18686;53.084;8.872;2023-04-01T05:38:42;81.43;;;23.90;;
32186;SDS011;18686;53.084;8.872;2023-04-01T05:41:12;90.53;;;26.48;;
32186;SDS011;18686;53.084;8.872;2023-04-01T05:43:44;83.82;;;25.48;;
32186;SDS011;18686;53.084;8.872;2023-04-01T05:46:31;81.45;;;24.17;;
32186;SDS011;18686;53.084;8.872;2023-04-01T05:49:09;78.00;;;23.70;;
32186;SDS011;18686;53.084;8.872;2023-04-01T05:51:39;81.38;;;23.38;;
32186;SDS011;18686;53.084;8.872;2023-04-01T05:54:07;66.30;;;21.88;;
32186;SDS011;18686;53.084;8.872;2023-04-01T05:56:36;68.45;;;23.13;;
32186;SDS011;18686;53.084;8.872;2023-04-01T05:59:05;47.10;;;19.40;;
32186;SDS011;18686;53.084;8.872;2023-04-01T06:01:33;56.45;;;21.25;;
32186;SDS011;18686;53.084;8.872;2023-04-01T06:04:01;76.05;;;22.73;;
32186;SDS011;18686;53.084;8.872;2023-04-01T06:06:30;68.38;;;22.10;;
32186;SDS011;18686;53.084;8.872;2023-04-01T06:09:12;50.17;;;19.13;;
32186;SDS011;18686;53.084;8.872;2023-04-01T06:12:01;59.00;;;19.67;;
32186;SDS011;18686;53.084;8.872;2023-04-01T06:14:57;52.35;;;18.48;;
32186;SDS011;18686;53.084;8.872;2023-04-01T06:17:43;53.95;;;19.15;;
32186;SDS011;18686;53.084;8.872;2023-04-01T06:20:38;52.38;;;19.45;;
32186;SDS011;18686;53.084;8.872;2023-04-01T06:23:19;53.78;;;19.40;;
32186;SDS011;18686;53.084;8.872;2023-04-01T06:26:06;56.08;;;20.15;;
32186;SDS011;18686;53.084;8.872;2023-04-01T06:28:49;47.60;;;18.38;;
32186;SDS011;18686;53.084;8.872;2023-04-01T06:31:40;47.28;;;18.08;;
32186;SDS011;18686;53.084;8.872;2023-04-01T06:34:43;42.17;;;17.23;;
32186;SDS011;18686;53.084;8.872;2023-04-01T06:37:36;49.22;;;19.35;;
32186;SDS011;18686;53.084;8.872;2023-04-01T06:40:19;50.00;;;18.70;;
32186;SDS011;18686;53.084;8.872;2023-04-01T06:43:15;44.90;;;18.25;;
32186;SDS011;18686;53.084;8.872;2023-04-01T06:46:26;51.00;;;18.70;;
32186;SDS011;18686;53.084;8.872;2023-04-01T06:49:30;47.03;;;18.40;;
32186;SDS011;18686;53.084;8.872;2023-04-01T06:52:23;54.08;;;19.75;;
32186;SDS011;18686;53.084;8.872;2023-04-01T06:55:30;39.10;;;15.73;;
32186;SDS011;18686;53.084;8.872;2023-04-01T06:58:24;48.38;;;17.55;;
32186;SDS011;18686;53.084;8.872;2023-04-01T07:00:56;40.45;;;17.00;;
32186;SDS011;18686;53.084;8.872;2023-04-01T07:03:29;42.90;;;16.65;;
32186;SDS011;18686;53.084;8.872;2023-04-01T07:06:03;44.58;;;16.13;;
32186;SDS011;18686;53.084;8.872;2023-04-01T07:08:38;46.65;;;18.30;;
32186;SDS011;18686;53.084;8.872;2023-04-01T07:11:10;43.17;;;16.58;;
32186;SDS011;18686;53.084;8.872;2023-04-01T07:14:13;34.75;;;15.90;;
32186;SDS011;18686;53.084;8.872;2023-04-01T07:16:47;35.50;;;15.18;;
32186;SDS011;18686;53.084;8.872;2023-04-01T07:19:20;39.95;;;15.95;;
32186;SDS011;18686;53.084;8.872;2023-04-01T07:22:01;39.10;;;16.35;;
32186;SDS011;18686;53.084;8.872;2023-04-01T07:24:51;37.47;;;15.23;;
32186;SDS011;18686;53.084;8.872;2023-04-01T07:27:24;46.28;;;15.18;;
32186;SDS011;18686;53.084;8.872;2023-04-01T07:29:57;39.53;;;14.77;;
32186;SDS011;18686;53.084;8.872;2023-04-01T07:32:30;34.63;;;13.85;;
32186;SDS011;18686;53.084;8.872;2023-04-01T07:35:21;34.83;;;13.77;;
32186;SDS011;18686;53.084;8.872;2023-04-01T07:38:04;33.45;;;13.48;;
32186;SDS011;18686;53.084;8.872;2023-04-01T07:40:45;30.50;;;13.82;;
32186;SDS011;18686;53.084;8.872;2023-04-01T07:43:21;25.88;;;12.13;;
32186;SDS011;18686;53.084;8.872;2023-04-01T07:46:29;20.65;;;10.85;;
32186;SDS011;18686;53.084;8.872;2023-04-01T07:49:10;21.30;;;10.85;;
32186;SDS011;18686;53.084;8.872;2023-04-01T07:51:46;21.58;;;10.68;;
32186;SDS011;18686;53.084;8.872;2023-04-01T07:54:22;25.45;;;11.45;;
32186;SDS011;18686;53.084;8.872;2023-04-01T07:56:57;14.32;;;8.57;;
32186;SDS011;18686;53.084;8.872;2023-04-01T07:59:48;19.52;;;9.75;;
32186;SDS011;18686;53.084;8.872;2023-04-01T08:02:44;17.90;;;9.65;;
32186;SDS011;18686;53.084;8.872;2023-04-01T08:05:24;17.63;;;9.80;;
32186;SDS011;18686;53.084;8.872;2023-04-01T08:07:59;11.55;;;7.30;;
32186;SDS011;18686;53.084;8.872;2023-04-01T08:10:55;17.83;;;8.68;;
32186;SDS011;18686;53.084;8.872;2023-04-01T08:14:04;11.32;;;6.60;;
32186;SDS011;18686;53.084;8.872;2023-04-01T08:17:13;10.40;;;5.95;;
32186;SDS011;18686;53.084;8.872;2023-04-01T08:19:53;13.38;;;6.18;;
32186;SDS011;18686;53.084;8.872;2023-04-01T08:22:33;9.85;;;5.60;;
32186;SDS011;18686;53.084;8.872;2023-04-01T08:25:19;12.68;;;5.53;;
32186;SDS011;18686;53.084;8.872;2023-04-01T08:27:53;9.30;;;4.80;;
32186;SDS011;18686;53.084;8.872;2023-04-01T08:30:31;8.63;;;5.15;;
32186;SDS011;18686;53.084;8.872;2023-04-01T08:33:09;11.95;;;5.05;;
32186;SDS011;18686;53.084;8.872;2023-04-01T08:35:42;12.48;;;4.78;;
32186;SDS011;18686;53.084;8.872;2023-04-01T08:38:19;8.32;;;3.90;;
32186;SDS011;18686;53.084;8.872;2023-04-01T08:40:55;8.57;;;4.70;;
32186;SDS011;18686;53.084;8.872;2023-04-01T08:44:03;9.40;;;4.22;;
32186;SDS011;18686;53.084;8.872;2023-04-01T08:46:51;8.50;;;3.53;;
32186;SDS011;18686;53.084;8.872;2023-04-01T08:49:41;8.80;;;3.55;;
32186;SDS011;18686;53.084;8.872;2023-04-01T08:52:58;4.75;;;3.40;;
32186;SDS011;18686;53.084;8.872;2023-04-01T08:55:43;10.25;;;3.67;;
32186;SDS011;18686;53.084;8.872;2023-04-01T09:01:32;5.90;;;3.00;;
32186;SDS011;18686;53.084;8.872;2023-04-01T09:04:35;7.10;;;3.08;;
32186;SDS011;18686;53.084;8.872;2023-04-01T09:07:18;4.22;;;2.40;;
32186;SDS011;18686;53.084;8.872;2023-04-01T09:10:10;8.50;;;2.65;;
32186;SDS011;18686;53.084;8.872;2023-04-01T09:12:53;6.82;;;2.75;;
32186;SDS011;18686;53.084;8.872;2023-04-01T09:15:42;3.25;;;1.83;;
32186;SDS011;18686;53.084;8.872;2023-04-01T09:18:28;5.70;;;2.53;;
32186;SDS011;18686;53.084;8.872;2023-04-01T09:21:28;6.25;;;2.20;;
32186;SDS011;18686;53.084;8.872;2023-04-01T09:24:22;4.43;;;1.63;;
32186;SDS011;18686;53.084;8.872;2023-04-01T09:27:03;4.30;;;1.80;;
32186;SDS011;18686;53.084;8.872;2023-04-01T09:29:50;3.13;;;1.83;;
32186;SDS011;18686;53.084;8.872;2023-04-01T09:32:48;1.98;;;1.20;;
32186;SDS011;18686;53.084;8.872;2023-04-01T09:35:37;3.25;;;1.05;;
32186;SDS011;18686;53.084;8.872;2023-04-01T09:38:23;5.75;;;1.30;;
32186;SDS011;18686;53.084;8.872;2023-04-01T09:40:58;2.95;;;1.08;;
32186;SDS011;18686;53.084;8.872;2023-04-01T09:43:59;3.90;;;1.00;;
32186;SDS011;18686;53.084;8.872;2023-04-01T09:46:43;3.13;;;0.80;;
32186;SDS011;18686;53.084;8.872;2023-04-01T09:49:40;3.55;;;1.20;;
32186;SDS011;18686;53.084;8.872;2023-04-01T09:52:24;2.50;;;1.13;;
32186;SDS011;18686;53.084;8.872;2023-04-01T09:55:15;2.45;;;0.90;;
32186;SDS011;18686;53.084;8.872;2023-04-01T09:58:07;2.25;;;1.08;;
32186;SDS011;18686;53.084;8.872;2023-04-01T10:01:53;2.20;;;1.08;;
32186;SDS011;18686;53.084;8.872;2023-04-01T10:05:04;3.20;;;1.70;;
32186;SDS011;18686;53.084;8.872;2023-04-01T10:11:02;1.42;;;0.90;;
32186;SDS011;18686;53.084;8.872;2023-04-01T10:13:59;1.88;;;0.88;;
32186;SDS011;18686;53.084;8.872;2023-04-01T10:16:58;3.45;;;0.85;;
32186;SDS011;18686;53.084;8.872;2023-04-01T10:19:47;2.72;;;0.75;;
32186;SDS011;18686;53.084;8.872;2023-04-01T10:25:58;2.15;;;0.70;;
32186;SDS011;18686;53.084;8.872;2023-04-01T10:32:39;1.07;;;0.37;;
32186;SDS011;18686;53.084;8.872;2023-04-01T10:45:58;2.67;;;1.30;;
32186;SDS011;18686;53.084;8.872;2023-04-01T10:55:19;10.20;;;4.82;;
32186;SDS011;18686;53.084;8.872;2023-04-01T10:58:34;1.45;;;1.08;;
32186;SDS011;18686;53.084;8.872;2023-04-01T11:27:42;0.75;;;0.30;;
32186;SDS011;18686;53.084;8.872;2023-04-01T11:30:26;0.20;;;0.20;;
32186;SDS011;18686;53.084;8.872;2023-04-01T11:33:02;1.80;;;0.95;;
32186;SDS011;18686;53.084;8.872;2023-04-01T11:38:44;1.10;;;0.70;;
32186;SDS011;18686;53.084;8.872;2023-04-01T11:41:46;0.77;;;0.68;;
32186;SDS011;18686;53.084;8.872;2023-04-01T11:44:35;0.80;;;0.65;;
32186;SDS011;18686;53.084;8.872;2023-04-01T11:47:19;1.40;;;0.75;;
32186;SDS011;18686;53.084;8.872;2023-04-01T11:50:02;0.60;;;0.60;;
32186;SDS011;18686;53.084;8.872;2023-04-01T11:52:53;0.30;;;0.30;;
32186;SDS011;18686;53.084;8.872;2023-04-01T11:55:31;0.82;;;0.50;;
32186;SDS011;18686;53.084;8.872;2023-04-01T12:01:27;0.55;;;0.50;;
32186;SDS011;18686;53.084;8.872;2023-04-01T12:04:10;0.40;;;0.40;;
32186;SDS011;18686;53.084;8.872;2023-04-01T12:07:00;1.38;;;0.50;;
32186;SDS011;18686;53.084;8.872;2023-04-01T12:09:35;1.05;;;0.50;;
32186;SDS011;18686;53.084;8.872;2023-04-01T12:12:16;0.50;;;0.50;;
32186;SDS011;18686;53.084;8.872;2023-04-01T12:14:54;0.68;;;0.68;;
32186;SDS011;18686;53.084;8.872;2023-04-01T12:17:34;0.50;;;0.50;;
32186;SDS011;18686;53.084;8.872;2023-04-01T12:20:26;0.88;;;0.77;;
32186;SDS011;18686;53.084;8.872;2023-04-01T12:23:08;0.90;;;0.57;;
32186;SDS011;18686;53.084;8.872;2023-04-01T12:28:45;1.05;;;0.77;;
32186;SDS011;18686;53.084;8.872;2023-04-01T12:31:28;7.45;;;3.92;;
32186;SDS011;18686;53.084;8.872;2023-04-01T12:37:18;1.15;;;0.40;;
32186;SDS011;18686;53.084;8.872;2023-04-01T12:39:56;1.08;;;0.88;;
32186;SDS011;18686;53.084;8.872;2023-04-01T12:42:36;0.70;;;0.60;;
32186;SDS011;18686;53.084;8.872;2023-04-01T12:45:30;0.70;;;0.52;;
32186;SDS011;18686;53.084;8.872;2023-04-01T12:51:05;0.60;;;0.50;;
32186;SDS011;18686;53.084;8.872;2023-04-01T12:54:05;0.57;;;0.20;;
32186;SDS011;18686;53.084;8.872;2023-04-01T12:56:53;0.40;;;0.40;;
32186;SDS011;18686;53.084;8.872;2023-04-01T12:59:42;0.47;;;0.47;;
32186;SDS011;18686;53.084;8.872;2023-04-01T13:02:25;0.40;;;0.40;;
32186;SDS011;18686;53.084;8.872;2023-04-01T13:05:19;1.38;;;0.40;;
32186;SDS011;18686;53.084;8.872;2023-04-01T13:08:12;0.88;;;0.50;;
32186;SDS011;18686;53.084;8.872;2023-04-01T13:11:02;1.10;;;0.40;;
32186;SDS011;18686;53.084;8.872;2023-04-01T13:13:41;0.57;;;0.40;;
32186;SDS011;18686;53.084;8.872;2023-04-01T13:16:30;2.15;;;0.40;;
32186;SDS011;18686;53.084;8.872;2023-04-01T13:19:03;0.40;;;0.30;;
32186;SDS011;18686;53.084;8.872;2023-04-01T13:21:38;1.77;;;0.30;;
32186;SDS011;18686;53.084;8.872;2023-04-01T13:24:20;0.40;;;0.20;;
32186;SDS011;18686;53.084;8.872;2023-04-01T13:26:59;0.63;;;0.63;;
32186;SDS011;18686;53.084;8.872;2023-04-01T13:29:33;0.60;;;0.50;;
32186;SDS011;18686;53.084;8.872;2023-04-01T13:32:10;0.50;;;0.35;;
32186;SDS011;18686;53.084;8.872;2023-04-01T13:37:49;0.32;;;0.30;;
32186;SDS011;18686;53.084;8.872;2023-04-01T13:40:26;0.45;;;0.30;;
32186;SDS011;18686;53.084;8.872;2023-04-01T13:43:07;0.57;;;0.20;;
32186;SDS011;18686;53.084;8.872;2023-04-01T13:45:42;0.65;;;0.13;;
32186;SDS011;18686;53.084;8.872;2023-04-01T13:48:29;0.30;;;0.30;;
32186;SDS011;18686;53.084;8.872;2023-04-01T13:51:15;0.68;;;0.45;;
32186;SDS011;18686;53.084;8.872;2023-04-01T13:53:59;0.45;;;0.40;;
32186;SDS011;18686;53.084;8.872;2023-04-01T13:56:48;0.82;;;0.63;;
32186;SDS011;18686;53.084;8.872;2023-04-01T13:59:37;0.98;;;0.20;;
32186;SDS011;18686;53.084;8.872;2023-04-01T14:02:21;0.50;;;0.47;;
32186;SDS011;18686;53.084;8.872;2023-04-01T14:05:07;1.08;;;0.50;;
32186;SDS011;18686;53.084;8.872;2023-04-01T14:08:04;0.98;;;0.60;;
32186;SDS011;18686;53.084;8.872;2023-04-01T14:10:42;0.77;;;0.50;;
32186;SDS011;18686;53.084;8.872;2023-04-01T14:13:18;1.17;;;0.50;;
32186;SDS011;18686;53.084;8.872;2023-04-01T14:16:00;0.38;;;0.38;;
32186;SDS011;18686;53.084;8.872;2023-04-01T14:18:53;0.68;;;0.50;;
32186;SDS011;18686;53.084;8.872;2023-04-01T14:21:30;1.60;;;0.55;;
32186;SDS011;18686;53.084;8.872;2023-04-01T14:26:49;1.02;;;0.68;;
32186;SDS011;18686;53.084;8.872;2023-04-01T14:29:37;1.10;;;0.50;;
32186;SDS011;18686;53.084;8.872;2023-04-01T14:32:18;1.58;;;0.63;;
32186;SDS011;18686;53.084;8.872;2023-04-01T14:34:59;1.02;;;0.70;;
32186;SDS011;18686;53.084;8.872;2023-04-01T14:37:58;1.55;;;0.80;;
32186;SDS011;18686;53.084;8.872;2023-04-01T14:40:40;1.92;;;0.90;;
32186;SDS011;18686;53.084;8.872;2023-04-01T14:46:17;1.20;;;1.10;;
32186;SDS011;18686;53.084;8.872;2023-04-01T14:49:04;5.70;;;0.90;;
32186;SDS011;18686;53.084;8.872;2023-04-01T14:51:41;1.60;;;1.05;;
32186;SDS011;18686;53.084;8.872;2023-04-01T14:54:13;1.60;;;1.10;;
32186;SDS011;18686;53.084;8.872;2023-04-01T14:56:49;1.50;;;1.25;;
32186;SDS011;18686;53.084;8.872;2023-04-01T14:59:26;3.92;;;1.70;;
32186;SDS011;18686;53.084;8.872;2023-04-01T15:01:57;2.05;;;1.50;;
32186;SDS011;18686;53.084;8.872;2023-04-01T15:04:50;2.53;;;1.75;;
32186;SDS011;18686;53.084;8.872;2023-04-01T15:10:31;1.67;;;1.58;;
32186;SDS011;18686;53.084;8.872;2023-04-01T15:13:22;3.38;;;1.85;;
32186;SDS011;18686;53.084;8.872;2023-04-01T15:16:09;2.60;;;1.98;;
32186;SDS011;18686;53.084;8.872;2023-04-01T15:18:48;3.00;;;1.90;;
32186;SDS011;18686;53.084;8.872;2023-04-01T15:21:29;2.85;;;1.75;;
32186;SDS011;18686;53.084;8.872;2023-04-01T15:24:11;3.92;;;2.13;;
32186;SDS011;18686;53.084;8.872;2023-04-01T15:26:47;1.88;;;1.58;;
32186;SDS011;18686;53.084;8.872;2023-04-01T15:32:39;2.05;;;1.55;;
32186;SDS011;18686;53.084;8.872;2023-04-01T15:35:20;2.25;;;1.90;;
32186;SDS011;18686;53.084;8.872;2023-04-01T15:37:57;1.83;;;1.40;;
32186;SDS011;18686;53.084;8.872;2023-04-01T15:40:33;3.15;;;1.60;;
32186;SDS011;18686;53.084;8.872;2023-04-01T15:43:13;1.58;;;1.40;;
32186;SDS011;18686;53.084;8.872;2023-04-01T15:45:56;3.67;;;1.48;;
32186;SDS011;18686;53.084;8.872;2023-04-01T15:51:25;1.67;;;1.40;;
32186;SDS011;18686;53.084;8.872;2023-04-01T15:54:11;1.85;;;1.48;;
32186;SDS011;18686;53.084;8.872;2023-04-01T15:57:02;3.80;;;1.77;;
32186;SDS011;18686;53.084;8.872;2023-04-01T15:59:53;4.15;;;1.80;;
32186;SDS011;18686;53.084;8.872;2023-04-01T16:02:42;2.10;;;1.80;;
32186;SDS011;18686;53.084;8.872;2023-04-01T16:05:26;3.38;;;2.00;;
32186;SDS011;18686;53.084;8.872;2023-04-01T16:08:32;3.67;;;1.90;;
32186;SDS011;18686;53.084;8.872;2023-04-01T16:11:16;1.98;;;1.60;;
32186;SDS011;18686;53.084;8.872;2023-04-01T16:13:54;3.13;;;1.80;;
32186;SDS011;18686;53.084;8.872;2023-04-01T16:16:36;2.13;;;1.67;;
32186;SDS011;18686;53.084;8.872;2023-04-01T16:19:21;3.95;;;1.75;;
32186;SDS011;18686;53.084;8.872;2023-04-01T16:22:00;2.20;;;1.75;;
32186;SDS011;18686;53.084;8.872;2023-04-01T16:24:33;3.60;;;1.92;;
32186;SDS011;18686;53.084;8.872;2023-04-01T16:27:09;3.55;;;1.38;;
32186;SDS011;18686;53.084;8.872;2023-04-01T16:29:45;3.67;;;1.67;;
32186;SDS011;18686;53.084;8.872;2023-04-01T16:32:34;3.30;;;1.77;;
32186;SDS011;18686;53.084;8.872;2023-04-01T16:35:16;2.53;;;1.67;;
32186;SDS011;18686;53.084;8.872;2023-04-01T16:37:54;3.95;;;1.92;;
32186;SDS011;18686;53.084;8.872;2023-04-01T16:40:34;3.03;;;1.70;;
32186;SDS011;18686;53.084;8.872;2023-04-01T16:43:12;4.60;;;2.15;;
32186;SDS011;18686;53.084;8.872;2023-04-01T16:45:53;3.28;;;1.98;;
32186;SDS011;18686;53.084;8.872;2023-04-01T16:48:28;2.92;;;1.98;;
32186;SDS011;18686;53.084;8.872;2023-04-01T16:51:04;4.13;;;2.15;;
32186;SDS011;18686;53.084;8.872;2023-04-01T16:53:41;3.22;;;2.00;;
32186;SDS011;18686;53.084;8.872;2023-04-01T16:56:12;4.65;;;3.00;;
32186;SDS011;18686;53.084;8.872;2023-04-01T16:58:54;5.18;;;2.58;;
32186;SDS011;18686;53.084;8.872;2023-04-01T17:01:30;4.03;;;2.97;;
32186;SDS011;18686;53.084;8.872;2023-04-01T17:04:07;3.22;;;2.17;;
32186;SDS011;18686;53.084;8.872;2023-04-01T17:06:45;5.18;;;2.70;;
32186;SDS011;18686;53.084;8.872;2023-04-01T17:09:22;3.83;;;2.40;;
32186;SDS011;18686;53.084;8.872;2023-04-01T17:12:03;9.45;;;2.80;;
32186;SDS011;18686;53.084;8.872;2023-04-01T17:14:40;4.78;;;2.80;;
32186;SDS011;18686;53.084;8.872;2023-04-01T17:17:20;4.68;;;2.67;;